sensor_id;sensor_type;location;lat;lon;timestamp;pressure;altitude;pressure_sealevel;temperature;humidity
73860;BME280;62197;51.632;13.700;2023-08-24T00:00:28;100549.97;;;16.26;100.00
73860;BME280;62197;51.632;13.700;2023-08-24T00:02:53;100544.66;;;15.95;100.00
73860;BME280;62197;51.632;13.700;2023-08-24T00:05:19;100545.41;;;15.70;100.00
73860;BME280;62197;51.632;13.700;2023-08-24T00:07:46;100545.88;;;15.47;100.00
73860;BME280;62197;51.632;13.700;2023-08-24T00:10:13;100557.47;;;15.34;100.00
73860;BME280;62197;51.632;13.700;2023-08-24T00:12:38;100567.13;;;15.83;100.00
73860;BME280;62197;51.632;13.700;2023-08-24T00:15:07;100573.06;;;16.17;100.00
73860;BME280;62197;51.632;13.700;2023-08-24T00:17:34;100570.56;;;16.20;100.00
73860;BME280;62197;51.632;13.700;2023-08-24T00:19:59;100559.66;;;15.89;100.00
73860;BME280;62197;51.632;13.700;2023-08-24T00:22:24;100560.97;;;15.66;100.00
73860;BME280;62197;51.632;13.700;2023-08-24T00:24:50;100565.03;;;16.46;100.00
73860;BME280;62197;51.632;13.700;2023-08-24T00:27:15;100555.00;;;16.19;100.00
73860;BME280;62197;51.632;13.700;2023-08-24T00:29:40;100549.03;;;15.76;100.00
73860;BME280;62197;51.632;13.700;2023-08-24T00:32:06;100555.03;;;15.43;100.00
73860;BME280;62197;51.632;13.700;2023-08-24T00:34:31;100560.19;;;15.24;100.00
73860;BME280;62197;51.632;13.700;2023-08-24T00:36:57;100561.09;;;15.34;100.00
73860;BME280;62197;51.632;13.700;2023-08-24T00:39:22;100564.97;;;16.00;100.00
73860;BME280;62197;51.632;13.700;2023-08-24T00:41:47;100557.94;;;15.78;100.00
73860;BME280;62197;51.632;13.700;2023-08-24T00:44:12;100562.03;;;15.50;100.00
73860;BME280;62197;51.632;13.700;2023-08-24T00:46:38;100558.75;;;15.21;100.00
73860;BME280;62197;51.632;13.700;2023-08-24T00:49:04;100552.84;;;15.03;100.00
73860;BME280;62197;51.632;13.700;2023-08-24T00:51:29;100571.69;;;14.96;100.00
73860;BME280;62197;51.632;13.700;2023-08-24T00:53:55;100573.06;;;14.93;100.00
73860;BME280;62197;51.632;13.700;2023-08-24T00:56:22;100564.91;;;15.75;100.00
73860;BME280;62197;51.632;13.700;2023-08-24T00:58:49;100556.28;;;15.77;100.00
73860;BME280;62197;51.632;13.700;2023-08-24T01:01:16;100559.97;;;15.35;100.00
73860;BME280;62197;51.632;13.700;2023-08-24T01:03:42;100555.34;;;15.04;100.00
73860;BME280;62197;51.632;13.700;2023-08-24T01:06:07;100568.28;;;14.89;100.00
73860;BME280;62197;51.632;13.700;2023-08-24T01:08:32;100563.78;;;14.78;100.00
73860;BME280;62197;51.632;13.700;2023-08-24T01:11:12;100571.47;;;14.66;100.00
73860;BME280;62197;51.632;13.700;2023-08-24T01:13:59;100574.69;;;14.53;100.00
73860;BME280;62197;51.632;13.700;2023-08-24T01:16:31;100576.41;;;14.59;100.00
73860;BME280;62197;51.632;13.700;2023-08-24T01:19:00;100571.69;;;14.59;100.00
73860;BME280;62197;51.632;13.700;2023-08-24T01:21:28;100578.56;;;15.30;100.00
73860;BME280;62197;51.632;13.700;2023-08-24T01:26:24;100568.34;;;14.94;100.00
73860;BME280;62197;51.632;13.700;2023-08-24T01:28:51;100572.38;;;15.18;100.00
73860;BME280;62197;51.632;13.700;2023-08-24T01:31:17;100574.28;;;15.59;100.00
73860;BME280;62197;51.632;13.700;2023-08-24T01:33:43;100570.22;;;15.30;100.00
73860;BME280;62197;51.632;13.700;2023-08-24T01:36:11;100563.94;;;14.98;100.00
73860;BME280;62197;51.632;13.700;2023-08-24T01:38:37;100577.09;;;14.76;100.00
73860;BME280;62197;51.632;13.700;2023-08-24T01:41:09;100577.50;;;14.58;100.00
73860;BME280;62197;51.632;13.700;2023-08-24T01:43:39;100584.66;;;14.48;100.00
73860;BME280;62197;51.632;13.700;2023-08-24T01:46:05;100579.81;;;14.34;100.00
73860;BME280;62197;51.632;13.700;2023-08-24T01:48:32;100588.34;;;14.27;100.00
73860;BME280;62197;51.632;13.700;2023-08-24T01:50:58;100589.94;;;14.23;100.00
73860;BME280;62197;51.632;13.700;2023-08-24T01:53:24;100586.53;;;14.16;100.00
73860;BME280;62197;51.632;13.700;2023-08-24T01:55:50;100590.09;;;14.12;100.00
73860;BME280;62197;51.632;13.700;2023-08-24T01:58:16;100587.50;;;14.05;100.00
73860;BME280;62197;51.632;13.700;2023-08-24T02:00:41;100579.16;;;14.00;100.00
73860;BME280;62197;51.632;13.700;2023-08-24T02:03:06;100584.06;;;13.93;100.00
73860;BME280;62197;51.632;13.700;2023-08-24T02:05:32;100574.31;;;13.91;100.00
73860;BME280;62197;51.632;13.700;2023-08-24T02:07:57;100582.88;;;15.06;100.00
73860;BME280;62197;51.632;13.700;2023-08-24T02:10:24;100572.66;;;15.16;100.00
73860;BME280;62197;51.632;13.700;2023-08-24T02:12:50;100574.09;;;15.24;100.00
73860;BME280;62197;51.632;13.700;2023-08-24T02:15:15;100573.09;;;14.98;100.00
73860;BME280;62197;51.632;13.700;2023-08-24T02:17:40;100569.41;;;14.88;100.00
73860;BME280;62197;51.632;13.700;2023-08-24T02:20:06;100557.13;;;15.77;100.00
73860;BME280;62197;51.632;13.700;2023-08-24T02:22:33;100550.78;;;16.07;100.00
73860;BME280;62197;51.632;13.700;2023-08-24T02:24:59;100550.53;;;16.13;100.00
73860;BME280;62197;51.632;13.700;2023-08-24T02:27:26;100546.38;;;16.31;100.00
73860;BME280;62197;51.632;13.700;2023-08-24T02:29:51;100549.94;;;15.96;100.00
73860;BME280;62197;51.632;13.700;2023-08-24T02:32:16;100551.16;;;15.49;100.00
73860;BME280;62197;51.632;13.700;2023-08-24T02:34:42;100557.69;;;15.22;100.00
73860;BME280;62197;51.632;13.700;2023-08-24T02:37:07;100570.50;;;14.87;100.00
73860;BME280;62197;51.632;13.700;2023-08-24T02:39:32;100563.94;;;15.03;100.00
73860;BME280;62197;51.632;13.700;2023-08-24T02:41:58;100557.44;;;15.29;100.00
73860;BME280;62197;51.632;13.700;2023-08-24T02:44:23;100564.34;;;15.83;100.00
73860;BME280;62197;51.632;13.700;2023-08-24T02:46:48;100550.25;;;15.38;100.00
73860;BME280;62197;51.632;13.700;2023-08-24T02:49:14;100553.13;;;15.48;100.00
73860;BME280;62197;51.632;13.700;2023-08-24T02:51:39;100556.63;;;16.10;100.00
73860;BME280;62197;51.632;13.700;2023-08-24T02:54:06;100546.91;;;16.38;100.00
73860;BME280;62197;51.632;13.700;2023-08-24T02:56:31;100538.81;;;16.16;100.00
73860;BME280;62197;51.632;13.700;2023-08-24T02:58:56;100539.31;;;15.83;100.00
73860;BME280;62197;51.632;13.700;2023-08-24T03:01:22;100547.22;;;16.32;100.00
73860;BME280;62197;51.632;13.700;2023-08-24T03:03:47;100546.59;;;16.14;100.00
73860;BME280;62197;51.632;13.700;2023-08-24T03:06:12;100542.69;;;16.10;100.00
73860;BME280;62197;51.632;13.700;2023-08-24T03:08:37;100530.91;;;15.68;100.00
73860;BME280;62197;51.632;13.700;2023-08-24T03:11:03;100541.34;;;15.36;100.00
73860;BME280;62197;51.632;13.700;2023-08-24T03:13:30;100543.75;;;15.74;100.00
73860;BME280;62197;51.632;13.700;2023-08-24T03:15:55;100540.94;;;15.69;100.00
73860;BME280;62197;51.632;13.700;2023-08-24T03:18:21;100544.03;;;15.73;100.00
73860;BME280;62197;51.632;13.700;2023-08-24T03:20:47;100540.91;;;15.64;100.00
73860;BME280;62197;51.632;13.700;2023-08-24T03:23:13;100540.44;;;15.77;100.00
73860;BME280;62197;51.632;13.700;2023-08-24T03:25:39;100552.03;;;15.64;100.00
73860;BME280;62197;51.632;13.700;2023-08-24T03:28:06;100554.47;;;15.46;100.00
73860;BME280;62197;51.632;13.700;2023-08-24T03:30:36;100554.81;;;15.07;100.00
73860;BME280;62197;51.632;13.700;2023-08-24T03:33:02;100557.56;;;14.66;100.00
73860;BME280;62197;51.632;13.700;2023-08-24T03:35:29;100562.03;;;14.67;100.00
73860;BME280;62197;51.632;13.700;2023-08-24T03:37:55;100563.44;;;15.06;100.00
73860;BME280;62197;51.632;13.700;2023-08-24T03:40:20;100560.31;;;15.02;100.00
73860;BME280;62197;51.632;13.700;2023-08-24T03:42:45;100554.84;;;15.12;100.00
73860;BME280;62197;51.632;13.700;2023-08-24T03:45:10;100549.88;;;14.73;100.00
73860;BME280;62197;51.632;13.700;2023-08-24T03:47:36;100544.81;;;14.33;100.00
73860;BME280;62197;51.632;13.700;2023-08-24T03:50:01;100554.84;;;14.12;100.00
73860;BME280;62197;51.632;13.700;2023-08-24T03:52:26;100557.16;;;13.94;100.00
73860;BME280;62197;51.632;13.700;2023-08-24T03:54:52;100557.41;;;13.92;100.00
73860;BME280;62197;51.632;13.700;2023-08-24T03:57:17;100559.50;;;14.28;100.00
73860;BME280;62197;51.632;13.700;2023-08-24T03:59:42;100555.78;;;14.50;100.00
73860;BME280;62197;51.632;13.700;2023-08-24T04:02:08;100564.22;;;15.01;100.00
73860;BME280;62197;51.632;13.700;2023-08-24T04:04:33;100561.56;;;14.80;100.00
73860;BME280;62197;51.632;13.700;2023-08-24T04:06:59;100558.88;;;14.53;100.00
73860;BME280;62197;51.632;13.700;2023-08-24T04:09:25;100557.47;;;14.24;100.00
73860;BME280;62197;51.632;13.700;2023-08-24T04:11:50;100560.31;;;14.02;100.00
73860;BME280;62197;51.632;13.700;2023-08-24T04:14:16;100559.59;;;13.90;100.00
73860;BME280;62197;51.632;13.700;2023-08-24T04:16:41;100570.56;;;14.97;100.00
73860;BME280;62197;51.632;13.700;2023-08-24T04:19:07;100553.16;;;15.63;100.00
73860;BME280;62197;51.632;13.700;2023-08-24T04:21:33;100549.31;;;15.74;100.00
73860;BME280;62197;51.632;13.700;2023-08-24T04:23:59;100550.78;;;15.35;100.00
73860;BME280;62197;51.632;13.700;2023-08-24T04:26:24;100545.28;;;14.98;100.00
73860;BME280;62197;51.632;13.700;2023-08-24T04:28:49;100555.84;;;14.60;100.00
73860;BME280;62197;51.632;13.700;2023-08-24T04:31:15;100558.56;;;14.50;100.00
73860;BME280;62197;51.632;13.700;2023-08-24T04:33:40;100562.78;;;14.94;100.00
73860;BME280;62197;51.632;13.700;2023-08-24T04:36:06;100555.94;;;14.70;100.00
73860;BME280;62197;51.632;13.700;2023-08-24T04:38:31;100554.31;;;14.42;100.00
73860;BME280;62197;51.632;13.700;2023-08-24T04:40:57;100557.94;;;14.16;100.00
73860;BME280;62197;51.632;13.700;2023-08-24T04:43:23;100559.47;;;14.02;100.00
73860;BME280;62197;51.632;13.700;2023-08-24T04:45:50;100578.00;;;13.96;100.00
73860;BME280;62197;51.632;13.700;2023-08-24T04:48:19;100576.91;;;13.97;100.00
73860;BME280;62197;51.632;13.700;2023-08-24T04:50:45;100567.19;;;14.00;100.00
73860;BME280;62197;51.632;13.700;2023-08-24T04:53:13;100570.66;;;14.12;100.00
73860;BME280;62197;51.632;13.700;2023-08-24T04:55:40;100560.13;;;14.14;100.00
73860;BME280;62197;51.632;13.700;2023-08-24T04:58:06;100557.16;;;14.20;100.00
73860;BME280;62197;51.632;13.700;2023-08-24T05:00:32;100563.34;;;14.27;100.00
73860;BME280;62197;51.632;13.700;2023-08-24T05:02:58;100560.63;;;14.32;100.00
73860;BME280;62197;51.632;13.700;2023-08-24T05:05:23;100565.38;;;14.37;100.00
73860;BME280;62197;51.632;13.700;2023-08-24T05:07:49;100560.19;;;14.45;100.00
73860;BME280;62197;51.632;13.700;2023-08-24T05:10:14;100566.66;;;14.56;100.00
73860;BME280;62197;51.632;13.700;2023-08-24T05:12:39;100561.75;;;14.68;100.00
73860;BME280;62197;51.632;13.700;2023-08-24T05:15:05;100563.78;;;14.78;100.00
73860;BME280;62197;51.632;13.700;2023-08-24T05:17:31;100556.38;;;14.93;100.00
73860;BME280;62197;51.632;13.700;2023-08-24T05:19:59;100555.38;;;15.09;100.00
73860;BME280;62197;51.632;13.700;2023-08-24T05:22:24;100561.03;;;15.24;100.00
73860;BME280;62197;51.632;13.700;2023-08-24T05:24:50;100561.09;;;15.34;100.00
73860;BME280;62197;51.632;13.700;2023-08-24T05:27:15;100555.06;;;15.48;100.00
73860;BME280;62197;51.632;13.700;2023-08-24T05:29:41;100550.66;;;15.62;100.00
73860;BME280;62197;51.632;13.700;2023-08-24T05:32:06;100537.03;;;15.70;100.00
73860;BME280;62197;51.632;13.700;2023-08-24T05:34:32;100542.09;;;15.83;100.00
73860;BME280;62197;51.632;13.700;2023-08-24T05:36:57;100543.25;;;16.12;100.00
73860;BME280;62197;51.632;13.700;2023-08-24T05:39:22;100538.28;;;16.30;100.00
73860;BME280;62197;51.632;13.700;2023-08-24T05:41:51;100529.94;;;16.85;100.00
73860;BME280;62197;51.632;13.700;2023-08-24T05:44:20;100527.69;;;16.97;100.00
73860;BME280;62197;51.632;13.700;2023-08-24T05:46:46;100523.25;;;16.91;100.00
73860;BME280;62197;51.632;13.700;2023-08-24T05:49:12;100521.53;;;17.00;100.00
73860;BME280;62197;51.632;13.700;2023-08-24T05:51:37;100518.16;;;17.08;100.00
73860;BME280;62197;51.632;13.700;2023-08-24T05:54:03;100517.00;;;17.19;100.00
73860;BME280;62197;51.632;13.700;2023-08-24T05:56:28;100528.16;;;17.24;100.00
73860;BME280;62197;51.632;13.700;2023-08-24T05:58:54;100534.78;;;17.38;100.00
73860;BME280;62197;51.632;13.700;2023-08-24T06:01:20;100512.47;;;17.43;100.00
73860;BME280;62197;51.632;13.700;2023-08-24T06:03:45;100525.84;;;17.56;100.00
73860;BME280;62197;51.632;13.700;2023-08-24T06:06:11;100521.88;;;17.67;100.00
73860;BME280;62197;51.632;13.700;2023-08-24T06:08:36;100531.28;;;17.86;100.00
73860;BME280;62197;51.632;13.700;2023-08-24T06:11:02;100514.19;;;17.98;100.00
73860;BME280;62197;51.632;13.700;2023-08-24T06:13:27;100514.31;;;18.17;100.00
73860;BME280;62197;51.632;13.700;2023-08-24T06:15:53;100508.66;;;18.27;100.00
73860;BME280;62197;51.632;13.700;2023-08-24T06:18:19;100499.59;;;18.40;100.00
73860;BME280;62197;51.632;13.700;2023-08-24T06:20:44;100505.88;;;18.60;100.00
73860;BME280;62197;51.632;13.700;2023-08-24T06:23:11;100497.75;;;18.64;100.00
73860;BME280;62197;51.632;13.700;2023-08-24T06:25:36;100508.00;;;18.73;100.00
73860;BME280;62197;51.632;13.700;2023-08-24T06:28:01;100505.63;;;18.85;100.00
73860;BME280;62197;51.632;13.700;2023-08-24T06:30:29;100504.22;;;18.88;100.00
73860;BME280;62197;51.632;13.700;2023-08-24T06:32:58;100501.78;;;19.05;100.00
73860;BME280;62197;51.632;13.700;2023-08-24T06:35:23;100498.22;;;19.23;100.00
73860;BME280;62197;51.632;13.700;2023-08-24T06:37:49;100494.16;;;19.39;100.00
73860;BME280;62197;51.632;13.700;2023-08-24T06:40:14;100487.69;;;19.62;100.00
73860;BME280;62197;51.632;13.700;2023-08-24T06:42:39;100498.13;;;19.75;100.00
73860;BME280;62197;51.632;13.700;2023-08-24T06:45:05;100494.53;;;19.94;100.00
73860;BME280;62197;51.632;13.700;2023-08-24T06:47:32;100493.97;;;20.10;100.00
73860;BME280;62197;51.632;13.700;2023-08-24T06:49:57;100486.19;;;20.26;100.00
73860;BME280;62197;51.632;13.700;2023-08-24T06:52:22;100487.09;;;20.40;100.00
73860;BME280;62197;51.632;13.700;2023-08-24T06:54:47;100498.16;;;20.63;100.00
73860;BME280;62197;51.632;13.700;2023-08-24T06:57:18;100499.94;;;20.73;100.00
73860;BME280;62197;51.632;13.700;2023-08-24T06:59:43;100496.56;;;20.90;100.00
73860;BME280;62197;51.632;13.700;2023-08-24T07:02:09;100502.28;;;20.98;100.00
73860;BME280;62197;51.632;13.700;2023-08-24T07:04:34;100492.66;;;21.18;100.00
73860;BME280;62197;51.632;13.700;2023-08-24T07:06:59;100499.97;;;21.46;100.00
73860;BME280;62197;51.632;13.700;2023-08-24T07:09:25;100496.44;;;21.40;100.00
73860;BME280;62197;51.632;13.700;2023-08-24T07:11:51;100493.72;;;21.49;100.00
73860;BME280;62197;51.632;13.700;2023-08-24T07:14:16;100498.06;;;21.82;100.00
73860;BME280;62197;51.632;13.700;2023-08-24T07:16:41;100501.41;;;21.84;100.00
73860;BME280;62197;51.632;13.700;2023-08-24T07:19:07;100503.97;;;21.94;100.00
73860;BME280;62197;51.632;13.700;2023-08-24T07:21:33;100504.97;;;22.12;100.00
73860;BME280;62197;51.632;13.700;2023-08-24T07:23:59;100507.34;;;22.18;100.00
73860;BME280;62197;51.632;13.700;2023-08-24T07:26:24;100511.13;;;22.14;100.00
73860;BME280;62197;51.632;13.700;2023-08-24T07:28:51;100501.09;;;22.21;100.00
73860;BME280;62197;51.632;13.700;2023-08-24T07:31:16;100499.53;;;22.51;100.00
73860;BME280;62197;51.632;13.700;2023-08-24T07:33:41;100498.84;;;22.68;100.00
73860;BME280;62197;51.632;13.700;2023-08-24T07:36:09;100487.72;;;22.93;100.00
73860;BME280;62197;51.632;13.700;2023-08-24T07:38:34;100496.09;;;23.15;100.00
73860;BME280;62197;51.632;13.700;2023-08-24T07:40:59;100488.16;;;23.17;100.00
73860;BME280;62197;51.632;13.700;2023-08-24T07:43:25;100489.69;;;23.23;100.00
73860;BME280;62197;51.632;13.700;2023-08-24T07:45:50;100485.16;;;23.45;100.00
73860;BME280;62197;51.632;13.700;2023-08-24T07:48:17;100483.53;;;23.52;100.00
73860;BME280;62197;51.632;13.700;2023-08-24T07:50:42;100489.19;;;23.61;100.00
73860;BME280;62197;51.632;13.700;2023-08-24T07:53:07;100488.22;;;23.74;100.00
73860;BME280;62197;51.632;13.700;2023-08-24T07:55:33;100482.63;;;23.91;100.00
73860;BME280;62197;51.632;13.700;2023-08-24T07:57:58;100472.06;;;24.05;100.00
73860;BME280;62197;51.632;13.700;2023-08-24T08:00:23;100471.06;;;24.18;100.00
73860;BME280;62197;51.632;13.700;2023-08-24T08:02:50;100483.84;;;24.24;100.00
73860;BME280;62197;51.632;13.700;2023-08-24T08:05:17;100479.50;;;24.18;100.00
73860;BME280;62197;51.632;13.700;2023-08-24T08:07:42;100487.66;;;24.28;100.00
73860;BME280;62197;51.632;13.700;2023-08-24T08:10:08;100492.47;;;24.45;100.00
73860;BME280;62197;51.632;13.700;2023-08-24T08:12:34;100481.19;;;24.36;100.00
73860;BME280;62197;51.632;13.700;2023-08-24T08:14:59;100491.47;;;24.58;100.00
73860;BME280;62197;51.632;13.700;2023-08-24T08:17:25;100487.59;;;24.62;100.00
73860;BME280;62197;51.632;13.700;2023-08-24T08:19:57;100491.44;;;24.75;100.00
73860;BME280;62197;51.632;13.700;2023-08-24T08:22:23;100481.28;;;24.91;100.00
73860;BME280;62197;51.632;13.700;2023-08-24T08:24:48;100483.72;;;25.01;100.00
73860;BME280;62197;51.632;13.700;2023-08-24T08:27:15;100480.19;;;25.13;100.00
73860;BME280;62197;51.632;13.700;2023-08-24T08:29:40;100469.88;;;25.17;100.00
73860;BME280;62197;51.632;13.700;2023-08-24T08:32:05;100484.44;;;25.36;100.00
73860;BME280;62197;51.632;13.700;2023-08-24T08:34:31;100476.66;;;25.24;100.00
73860;BME280;62197;51.632;13.700;2023-08-24T08:36:56;100482.16;;;25.21;100.00
73860;BME280;62197;51.632;13.700;2023-08-24T08:39:22;100470.06;;;25.20;100.00
73860;BME280;62197;51.632;13.700;2023-08-24T08:41:48;100450.22;;;25.29;100.00
73860;BME280;62197;51.632;13.700;2023-08-24T08:44:14;100453.47;;;25.48;100.00
73860;BME280;62197;51.632;13.700;2023-08-24T08:46:41;100457.84;;;25.74;100.00
73860;BME280;62197;51.632;13.700;2023-08-24T08:49:07;100445.97;;;26.02;100.00
73860;BME280;62197;51.632;13.700;2023-08-24T08:51:35;100449.31;;;26.24;100.00
73860;BME280;62197;51.632;13.700;2023-08-24T08:54:00;100453.31;;;26.56;98.03
73860;BME280;62197;51.632;13.700;2023-08-24T08:56:26;100451.19;;;26.73;100.00
73860;BME280;62197;51.632;13.700;2023-08-24T08:58:52;100451.69;;;26.88;100.00
73860;BME280;62197;51.632;13.700;2023-08-24T09:01:20;100436.28;;;27.09;95.84
73860;BME280;62197;51.632;13.700;2023-08-24T09:03:46;100442.13;;;27.37;94.85
73860;BME280;62197;51.632;13.700;2023-08-24T09:06:12;100447.72;;;27.13;93.52
73860;BME280;62197;51.632;13.700;2023-08-24T09:08:37;100446.69;;;26.52;95.24
73860;BME280;62197;51.632;13.700;2023-08-24T09:11:03;100443.06;;;26.51;99.96
73860;BME280;62197;51.632;13.700;2023-08-24T09:13:28;100443.78;;;26.60;99.50
73860;BME280;62197;51.632;13.700;2023-08-24T09:15:54;100424.53;;;26.74;96.03
73860;BME280;62197;51.632;13.700;2023-08-24T09:18:37;100435.00;;;26.41;91.37
73860;BME280;62197;51.632;13.700;2023-08-24T09:21:09;100433.78;;;26.63;94.65
73860;BME280;62197;51.632;13.700;2023-08-24T09:23:34;100431.50;;;26.77;98.06
73860;BME280;62197;51.632;13.700;2023-08-24T09:26:00;100426.69;;;26.57;95.89
73860;BME280;62197;51.632;13.700;2023-08-24T09:28:25;100434.06;;;26.70;100.00
73860;BME280;62197;51.632;13.700;2023-08-24T09:30:53;100426.91;;;26.97;96.37
73860;BME280;62197;51.632;13.700;2023-08-24T09:33:22;100421.03;;;26.90;98.29
73860;BME280;62197;51.632;13.700;2023-08-24T09:35:54;100427.88;;;27.01;97.85
73860;BME280;62197;51.632;13.700;2023-08-24T09:38:23;100414.16;;;26.78;95.28
73860;BME280;62197;51.632;13.700;2023-08-24T09:40:53;100411.59;;;26.98;91.11
73860;BME280;62197;51.632;13.700;2023-08-24T09:43:18;100403.56;;;27.00;98.25
73860;BME280;62197;51.632;13.700;2023-08-24T09:45:54;100397.44;;;27.10;94.00
73860;BME280;62197;51.632;13.700;2023-08-24T09:48:20;100401.94;;;27.23;95.62
73860;BME280;62197;51.632;13.700;2023-08-24T09:50:48;100401.56;;;26.67;96.01
73860;BME280;62197;51.632;13.700;2023-08-24T09:53:17;100405.19;;;26.76;94.38
73860;BME280;62197;51.632;13.700;2023-08-24T09:55:49;100405.44;;;26.96;100.00
73860;BME280;62197;51.632;13.700;2023-08-24T09:58:18;100400.25;;;26.98;100.00
73860;BME280;62197;51.632;13.700;2023-08-24T10:03:36;100392.00;;;27.17;100.00
73860;BME280;62197;51.632;13.700;2023-08-24T10:06:05;100378.44;;;27.22;93.49
73860;BME280;62197;51.632;13.700;2023-08-24T10:08:39;100386.59;;;27.36;95.46
73860;BME280;62197;51.632;13.700;2023-08-24T10:11:09;100381.03;;;27.51;91.20
73860;BME280;62197;51.632;13.700;2023-08-24T10:13:50;100384.34;;;27.17;96.62
73860;BME280;62197;51.632;13.700;2023-08-24T10:16:19;100382.34;;;27.42;100.00
73860;BME280;62197;51.632;13.700;2023-08-24T10:18:45;100372.50;;;27.63;97.55
73860;BME280;62197;51.632;13.700;2023-08-24T10:21:11;100377.25;;;27.35;100.00
73860;BME280;62197;51.632;13.700;2023-08-24T10:23:37;100383.47;;;27.77;95.74
73860;BME280;62197;51.632;13.700;2023-08-24T10:26:06;100381.22;;;27.83;94.78
73860;BME280;62197;51.632;13.700;2023-08-24T10:28:32;100394.38;;;27.63;95.60
73860;BME280;62197;51.632;13.700;2023-08-24T10:30:59;100384.69;;;27.64;92.46
73860;BME280;62197;51.632;13.700;2023-08-24T10:33:25;100380.94;;;27.48;96.66
73860;BME280;62197;51.632;13.700;2023-08-24T10:35:51;100382.53;;;27.73;95.00
73860;BME280;62197;51.632;13.700;2023-08-24T10:38:29;100375.72;;;27.62;92.98
73860;BME280;62197;51.632;13.700;2023-08-24T10:41:02;100380.72;;;27.93;95.08
73860;BME280;62197;51.632;13.700;2023-08-24T10:43:34;100360.66;;;28.13;91.02
73860;BME280;62197;51.632;13.700;2023-08-24T10:46:03;100358.72;;;28.29;91.87
73860;BME280;62197;51.632;13.700;2023-08-24T10:48:31;100358.50;;;27.95;94.05
73860;BME280;62197;51.632;13.700;2023-08-24T10:54:07;100360.00;;;28.04;92.96
73860;BME280;62197;51.632;13.700;2023-08-24T10:56:36;100359.28;;;28.07;91.37
73860;BME280;62197;51.632;13.700;2023-08-24T10:59:17;100350.41;;;27.69;99.64
73860;BME280;62197;51.632;13.700;2023-08-24T11:02:03;100350.69;;;27.16;100.00
73860;BME280;62197;51.632;13.700;2023-08-24T11:04:29;100346.91;;;27.48;98.19
73860;BME280;62197;51.632;13.700;2023-08-24T11:06:56;100345.69;;;27.61;99.93
73860;BME280;62197;51.632;13.700;2023-08-24T11:09:24;100342.66;;;27.42;98.53
73860;BME280;62197;51.632;13.700;2023-08-24T11:11:57;100337.69;;;27.15;96.70
73860;BME280;62197;51.632;13.700;2023-08-24T11:14:23;100334.41;;;27.37;100.00
73860;BME280;62197;51.632;13.700;2023-08-24T11:16:50;100337.38;;;27.68;89.85
73860;BME280;62197;51.632;13.700;2023-08-24T11:19:16;100331.38;;;27.70;91.31
73860;BME280;62197;51.632;13.700;2023-08-24T11:21:43;100330.19;;;28.10;92.74
73860;BME280;62197;51.632;13.700;2023-08-24T11:24:09;100319.94;;;28.49;88.39
73860;BME280;62197;51.632;13.700;2023-08-24T11:26:40;100320.44;;;28.67;83.31
73860;BME280;62197;51.632;13.700;2023-08-24T11:29:06;100305.28;;;28.47;88.80
73860;BME280;62197;51.632;13.700;2023-08-24T11:31:33;100300.97;;;28.37;97.84
73860;BME280;62197;51.632;13.700;2023-08-24T11:33:59;100309.47;;;28.37;91.58
73860;BME280;62197;51.632;13.700;2023-08-24T11:36:24;100307.00;;;28.51;80.66
73860;BME280;62197;51.632;13.700;2023-08-24T11:38:53;100297.50;;;29.95;75.60
73860;BME280;62197;51.632;13.700;2023-08-24T11:41:21;100294.84;;;30.66;72.07
73860;BME280;62197;51.632;13.700;2023-08-24T11:43:47;100281.50;;;32.05;67.36
73860;BME280;62197;51.632;13.700;2023-08-24T11:46:15;100278.22;;;32.79;60.93
73860;BME280;62197;51.632;13.700;2023-08-24T11:48:41;100274.75;;;33.61;58.44
73860;BME280;62197;51.632;13.700;2023-08-24T11:51:10;100268.44;;;34.07;55.32
73860;BME280;62197;51.632;13.700;2023-08-24T11:53:38;100263.81;;;33.85;54.39
73860;BME280;62197;51.632;13.700;2023-08-24T11:56:04;100260.19;;;33.91;49.73
73860;BME280;62197;51.632;13.700;2023-08-24T11:58:31;100258.50;;;33.80;53.40
73860;BME280;62197;51.632;13.700;2023-08-24T12:00:56;100259.22;;;33.62;51.75
73860;BME280;62197;51.632;13.700;2023-08-24T12:03:21;100252.03;;;33.21;51.66
73860;BME280;62197;51.632;13.700;2023-08-24T12:05:47;100258.34;;;33.48;53.19
73860;BME280;62197;51.632;13.700;2023-08-24T12:08:12;100250.91;;;33.43;53.96
73860;BME280;62197;51.632;13.700;2023-08-24T12:10:42;100259.34;;;33.15;51.96
73860;BME280;62197;51.632;13.700;2023-08-24T12:13:07;100255.00;;;32.08;51.63
73860;BME280;62197;51.632;13.700;2023-08-24T12:15:34;100252.44;;;30.61;65.81
73860;BME280;62197;51.632;13.700;2023-08-24T12:18:11;100251.25;;;29.25;80.20
73860;BME280;62197;51.632;13.700;2023-08-24T12:20:36;100233.31;;;28.55;87.05
73860;BME280;62197;51.632;13.700;2023-08-24T12:23:02;100241.88;;;28.27;83.35
73860;BME280;62197;51.632;13.700;2023-08-24T12:25:27;100234.72;;;28.96;80.18
73860;BME280;62197;51.632;13.700;2023-08-24T12:30:51;100234.41;;;28.66;83.23
73860;BME280;62197;51.632;13.700;2023-08-24T12:33:27;100238.09;;;29.17;88.19
73860;BME280;62197;51.632;13.700;2023-08-24T12:35:53;100230.13;;;30.41;70.57
73860;BME280;62197;51.632;13.700;2023-08-24T12:38:20;100237.63;;;31.86;70.17
73860;BME280;62197;51.632;13.700;2023-08-24T12:40:46;100231.81;;;31.46;68.51